createdAt,value
2023-05-19T00:01:37.743Z,10.40
2023-05-19T00:04:40.732Z,10.37
2023-05-19T00:07:45.588Z,10.36
2023-05-19T00:10:48.394Z,10.36
2023-05-19T00:13:55.825Z,10.37
2023-05-19T00:16:58.036Z,10.35
2023-05-19T00:20:01.517Z,10.36
2023-05-19T00:23:03.196Z,10.34
2023-05-19T00:26:05.416Z,10.32
2023-05-19T00:29:09.075Z,10.31
2023-05-19T00:32:11.292Z,10.28
2023-05-19T00:35:14.017Z,10.30
2023-05-19T00:38:15.727Z,10.29
2023-05-19T00:41:18.371Z,10.27
2023-05-19T00:44:20.538Z,10.26
2023-05-19T00:47:22.709Z,10.26
2023-05-19T00:50:27.894Z,10.24
2023-05-19T00:53:31.041Z,10.23
2023-05-19T00:56:33.640Z,10.21
2023-05-19T00:59:36.255Z,10.21
2023-05-19T01:02:39.989Z,10.16
2023-05-19T01:05:44.844Z,10.13
2023-05-19T01:08:46.609Z,10.09
2023-05-19T01:11:49.183Z,10.07
2023-05-19T01:14:51.446Z,10.04
2023-05-19T01:18:12.262Z,10.02
2023-05-19T01:21:50.487Z,9.97
2023-05-19T01:25:13.107Z,9.93
2023-05-19T01:28:37.553Z,9.89
2023-05-19T01:31:42.966Z,9.87
2023-05-19T01:34:48.931Z,9.79
2023-05-19T01:37:54.531Z,9.77
2023-05-19T01:40:58.066Z,9.73
2023-05-19T01:44:00.493Z,9.70
2023-05-19T01:47:03.965Z,9.69
2023-05-19T01:50:07.281Z,9.65
2023-05-19T01:53:09.185Z,9.57
2023-05-19T01:56:10.910Z,9.53
2023-05-19T01:59:33.598Z,9.52
2023-05-19T02:03:07.618Z,9.49
2023-05-19T02:06:41.962Z,9.46
2023-05-19T02:10:02.650Z,9.42
2023-05-19T02:13:08.686Z,9.41
2023-05-19T02:16:13.469Z,9.38
2023-05-19T02:19:26.346Z,9.38
2023-05-19T02:22:31.143Z,9.36
2023-05-19T02:25:33.339Z,9.32
2023-05-19T02:28:36.629Z,9.34
2023-05-19T02:31:39.166Z,9.33
2023-05-19T02:34:45.669Z,9.30
2023-05-19T02:37:48.369Z,9.31
2023-05-19T02:40:52.327Z,9.28
2023-05-19T02:43:54.242Z,9.28
2023-05-19T02:46:56.595Z,9.26
2023-05-19T02:49:58.741Z,9.23
2023-05-19T02:53:02.550Z,9.26
2023-05-19T02:56:05.112Z,9.25
2023-05-19T02:59:07.760Z,9.25
2023-05-19T03:02:11.405Z,9.26
2023-05-19T03:05:14.410Z,9.25
2023-05-19T03:08:16.455Z,9.23
2023-05-19T03:11:18.676Z,9.24
2023-05-19T03:14:24.168Z,9.23
2023-05-19T03:17:26.147Z,9.23
2023-05-19T03:20:31.013Z,9.22
2023-05-19T03:23:33.371Z,9.24
2023-05-19T03:26:35.036Z,9.25
2023-05-19T03:29:37.256Z,9.26
2023-05-19T03:32:40.199Z,9.26
2023-05-19T03:35:44.378Z,9.25
2023-05-19T03:38:46.579Z,9.29
2023-05-19T03:41:48.752Z,9.31
2023-05-19T03:44:51.085Z,9.30
2023-05-19T03:47:54.165Z,9.33
2023-05-19T03:51:09.078Z,9.34
2023-05-19T03:54:10.793Z,9.37
2023-05-19T03:57:13.012Z,9.37
2023-05-19T04:00:16.675Z,9.38
2023-05-19T04:03:19.596Z,9.40
2023-05-19T04:06:22.096Z,9.40
2023-05-19T04:09:25.970Z,9.39
2023-05-19T04:12:27.660Z,9.40
2023-05-19T04:15:31.244Z,9.44
2023-05-19T04:18:33.634Z,9.41
2023-05-19T04:21:35.303Z,9.49
2023-05-19T04:24:37.572Z,9.52
2023-05-19T04:27:39.975Z,9.53
2023-05-19T04:30:42.687Z,9.54
2023-05-19T04:33:44.903Z,9.52
2023-05-19T04:36:49.491Z,9.54
2023-05-19T04:39:52.956Z,9.57
2023-05-19T04:42:58.096Z,9.58
2023-05-19T04:46:00.545Z,9.60
2023-05-19T04:49:03.134Z,9.60
2023-05-19T04:52:08.653Z,9.62
2023-05-19T04:55:13.332Z,9.64
2023-05-19T04:58:17.831Z,9.67
2023-05-19T05:01:23.083Z,9.71
2023-05-19T05:04:24.821Z,9.74
2023-05-19T05:07:27.045Z,9.77
2023-05-19T05:10:29.900Z,9.82
2023-05-19T05:13:31.996Z,9.87
2023-05-19T05:16:36.618Z,9.90
2023-05-19T05:19:40.524Z,9.92
2023-05-19T05:22:44.577Z,9.95
2023-05-19T05:25:48.222Z,10.01
2023-05-19T05:28:51.950Z,10.03
2023-05-19T05:31:54.536Z,10.06
2023-05-19T05:34:57.680Z,10.12
2023-05-19T05:38:01.687Z,10.15
2023-05-19T05:41:03.759Z,10.23
2023-05-19T05:44:07.878Z,10.28
2023-05-19T05:47:12.416Z,10.31
2023-05-19T05:50:15.224Z,10.34
2023-05-19T05:53:21.863Z,10.41
2023-05-19T05:56:28.754Z,10.49
2023-05-19T05:59:30.581Z,10.54
2023-05-19T06:02:33.050Z,10.63
2023-05-19T06:05:36.569Z,10.70
2023-05-19T06:08:38.879Z,10.75
2023-05-19T06:11:40.731Z,10.83
2023-05-19T06:14:43.427Z,10.92
2023-05-19T06:17:50.878Z,10.95
2023-05-19T06:20:54.454Z,11.11
2023-05-19T06:23:56.685Z,11.21
2023-05-19T06:26:58.855Z,11.38
2023-05-19T06:30:01.264Z,11.47
2023-05-19T06:33:06.652Z,11.62
2023-05-19T06:36:10.196Z,11.75
2023-05-19T06:39:13.924Z,11.89
2023-05-19T06:42:16.277Z,11.99
2023-05-19T06:45:33.028Z,12.08
2023-05-19T06:48:37.397Z,12.12
2023-05-19T06:51:39.616Z,12.19
2023-05-19T06:54:43.169Z,12.25
2023-05-19T06:57:46.245Z,12.35
2023-05-19T07:00:49.782Z,12.41
2023-05-19T07:03:52.720Z,12.46
2023-05-19T07:06:55.568Z,12.51
2023-05-19T07:09:57.626Z,12.50
2023-05-19T07:13:01.338Z,12.52
2023-05-19T07:16:07.813Z,12.51
2023-05-19T07:19:10.155Z,12.50
2023-05-19T07:22:11.968Z,12.53
2023-05-19T07:25:14.097Z,12.63
2023-05-19T07:28:15.971Z,12.66
2023-05-19T07:31:17.793Z,12.71
2023-05-19T07:34:21.964Z,12.72
2023-05-19T07:37:23.650Z,12.73
2023-05-19T07:40:25.778Z,12.77
2023-05-19T07:43:27.567Z,12.83
2023-05-19T07:46:29.719Z,12.88
2023-05-19T07:49:31.434Z,12.96
2023-05-19T07:52:33.857Z,13.01
2023-05-19T07:55:35.809Z,13.10
2023-05-19T07:58:38.406Z,13.10
2023-05-19T08:01:40.839Z,13.14
2023-05-19T08:04:43.022Z,13.16
2023-05-19T08:07:45.223Z,13.16
2023-05-19T08:10:46.925Z,13.14
2023-05-19T08:13:49.386Z,13.07
2023-05-19T08:16:51.762Z,13.06
2023-05-19T08:19:53.899Z,13.05
2023-05-19T08:22:55.509Z,13.01
2023-05-19T08:25:57.749Z,13.00
2023-05-19T08:28:59.933Z,12.95
2023-05-19T08:32:02.807Z,12.97
2023-05-19T08:35:05.177Z,12.96
2023-05-19T08:38:07.266Z,12.95
2023-05-19T08:41:09.721Z,12.97
2023-05-19T08:44:12.043Z,12.95
2023-05-19T08:47:14.904Z,12.90
2023-05-19T08:50:29.046Z,12.92
2023-05-19T08:53:37.788Z,12.91
2023-05-19T08:56:40.146Z,12.92
2023-05-19T08:59:43.964Z,12.90
2023-05-19T09:02:55.460Z,12.97
2023-05-19T09:06:10.081Z,13.07
2023-05-19T09:09:12.395Z,13.11
2023-05-19T09:12:14.765Z,13.15
2023-05-19T09:15:21.162Z,13.19
2023-05-19T09:18:27.541Z,13.21
2023-05-19T09:21:32.031Z,13.28
2023-05-19T09:24:36.769Z,13.37
2023-05-19T09:27:46.180Z,13.43
2023-05-19T09:31:03.745Z,13.46
2023-05-19T09:34:15.231Z,13.49
2023-05-19T09:37:19.735Z,13.61
2023-05-19T09:40:28.579Z,13.67
2023-05-19T09:43:38.461Z,13.68
2023-05-19T09:46:57.706Z,13.76
2023-05-19T09:50:02.361Z,13.80
2023-05-19T09:53:04.144Z,13.91
2023-05-19T09:56:09.439Z,13.98
2023-05-19T09:59:16.830Z,14.06
2023-05-19T10:02:26.472Z,14.08
2023-05-19T10:05:31.164Z,14.12
2023-05-19T10:08:34.549Z,14.10
2023-05-19T10:11:44.481Z,14.08
2023-05-19T10:14:49.982Z,14.03
2023-05-19T10:17:55.787Z,14.05
2023-05-19T10:21:02.566Z,14.05
2023-05-19T10:24:06.790Z,14.11
2023-05-19T10:27:13.731Z,14.16
2023-05-19T10:30:37.360Z,14.19
2023-05-19T10:33:43.789Z,14.14
2023-05-19T10:37:20.457Z,14.12
2023-05-19T10:40:55.339Z,14.17
2023-05-19T10:44:36.537Z,14.19
2023-05-19T10:47:45.507Z,14.17
2023-05-19T10:50:54.451Z,14.13
2023-05-19T10:54:03.379Z,14.06
2023-05-19T10:57:16.514Z,14.03
2023-05-19T11:00:36.896Z,14.03
2023-05-19T11:03:47.513Z,14.01
2023-05-19T11:06:54.687Z,14.03
2023-05-19T11:10:08.715Z,13.99
2023-05-19T11:13:20.299Z,13.95
2023-05-19T11:16:32.534Z,13.91
2023-05-19T11:20:01.214Z,13.90
2023-05-19T11:23:10.062Z,13.86
2023-05-19T11:26:18.182Z,13.84
2023-05-19T11:29:27.371Z,13.86
2023-05-19T11:32:38.544Z,13.87
2023-05-19T11:35:45.947Z,13.89
2023-05-19T11:38:52.268Z,13.91
2023-05-19T11:41:58.181Z,13.92
2023-05-19T11:45:05.908Z,13.95
2023-05-19T11:48:16.276Z,13.95
2023-05-19T11:51:21.767Z,13.94
2023-05-19T11:54:33.997Z,13.99
2023-05-19T11:57:47.020Z,14.02
2023-05-19T12:00:57.198Z,14.03
2023-05-19T12:04:04.752Z,14.10
2023-05-19T12:07:09.811Z,14.13
2023-05-19T12:10:14.781Z,14.16
2023-05-19T12:13:20.712Z,14.19
2023-05-19T12:16:25.246Z,14.21
2023-05-19T12:19:31.598Z,14.22
2023-05-19T12:22:35.932Z,14.21
2023-05-19T12:25:46.700Z,14.19
2023-05-19T12:28:53.934Z,14.22
2023-05-19T12:31:58.962Z,14.24
2023-05-19T12:35:09.713Z,14.22
2023-05-19T12:38:16.408Z,14.20
2023-05-19T12:41:22.258Z,14.17
2023-05-19T12:44:26.808Z,14.14
2023-05-19T12:47:38.037Z,14.14
2023-05-19T12:50:42.510Z,14.12
2023-05-19T12:56:53.290Z,14.22
2023-05-19T13:00:13.093Z,14.27
2023-05-19T13:03:23.046Z,14.33
2023-05-19T13:06:24.985Z,14.41
2023-05-19T13:09:28.808Z,14.51
2023-05-19T13:12:34.505Z,14.57
2023-05-19T13:15:43.790Z,14.63
2023-05-19T13:18:49.372Z,14.71
2023-05-19T13:21:54.491Z,14.83
2023-05-19T13:25:01.809Z,14.91
2023-05-19T13:28:05.985Z,15.02
2023-05-19T13:31:09.124Z,15.15
2023-05-19T13:34:13.206Z,15.28
2023-05-19T13:37:16.509Z,15.46
2023-05-19T13:40:20.639Z,15.54
2023-05-19T13:43:25.860Z,15.60
2023-05-19T13:49:58.784Z,15.67
2023-05-19T13:51:33.005Z,15.68
2023-05-19T13:53:02.303Z,15.68
2023-05-19T13:56:08.946Z,15.72
2023-05-19T13:59:12.481Z,15.78
2023-05-19T14:02:15.747Z,15.80
2023-05-19T14:05:17.518Z,15.79
2023-05-19T14:08:20.902Z,15.75
2023-05-19T14:11:29.053Z,15.83
2023-05-19T14:14:37.432Z,15.97
2023-05-19T14:17:39.866Z,16.11
2023-05-19T14:20:46.321Z,16.17
2023-05-19T14:23:54.803Z,16.11
2023-05-19T14:27:01.622Z,16.09
2023-05-19T14:30:07.607Z,15.98
2023-05-19T14:33:11.799Z,15.94
2023-05-19T14:36:20.600Z,15.92
2023-05-19T14:39:27.119Z,15.90
2023-05-19T14:42:45.012Z,15.99
2023-05-19T14:45:49.566Z,16.08
2023-05-19T14:48:52.530Z,16.19
2023-05-19T14:51:56.847Z,16.24
2023-05-19T14:55:05.697Z,16.32
2023-05-19T14:58:23.554Z,16.58
2023-05-19T15:01:32.802Z,16.78
2023-05-19T15:04:41.840Z,16.96
2023-05-19T15:07:46.605Z,17.07
2023-05-19T15:10:51.368Z,17.12
2023-05-19T15:13:54.436Z,17.18
2023-05-19T15:16:57.475Z,17.25
2023-05-19T15:20:01.622Z,17.28
2023-05-19T15:23:10.058Z,17.29
2023-05-19T15:26:25.151Z,17.28
2023-05-19T15:29:28.949Z,17.23
2023-05-19T15:32:36.186Z,17.23
2023-05-19T15:35:42.982Z,17.15
2023-05-19T15:38:54.526Z,17.07
2023-05-19T15:42:03.453Z,16.99
2023-05-19T15:45:12.666Z,16.97
2023-05-19T15:48:17.857Z,16.98
2023-05-19T15:51:21.133Z,16.92
2023-05-19T15:54:25.527Z,16.95
2023-05-19T15:57:27.659Z,16.99
2023-05-19T16:00:29.369Z,17.01
2023-05-19T16:03:33.114Z,17.06
2023-05-19T16:06:36.082Z,17.09
2023-05-19T16:10:36.309Z,17.12
2023-05-19T16:17:50.201Z,17.11
2023-05-19T16:20:58.213Z,17.06
2023-05-19T16:24:01.012Z,17.05
2023-05-19T16:27:05.468Z,17.04
2023-05-19T16:30:33.695Z,17.01
2023-05-19T16:33:41.822Z,17.05
2023-05-19T16:36:44.198Z,17.03
2023-05-19T16:39:48.421Z,17.02
2023-05-19T16:42:53.219Z,16.99
2023-05-19T16:45:57.198Z,17.01
2023-05-19T16:49:01.766Z,16.99
2023-05-19T16:52:10.580Z,16.98
2023-05-19T16:55:19.920Z,16.96
2023-05-19T16:58:30.884Z,16.90
2023-05-19T17:01:39.191Z,16.87
2023-05-19T17:04:47.008Z,16.83
2023-05-19T17:07:53.150Z,16.83
2023-05-19T17:11:00.263Z,16.81
2023-05-19T17:14:07.688Z,16.76
2023-05-19T17:17:19.967Z,16.69
2023-05-19T17:20:22.617Z,16.62
2023-05-19T17:23:24.624Z,16.64
2023-05-19T17:26:28.463Z,16.64
2023-05-19T17:29:34.636Z,16.60
2023-05-19T17:32:41.549Z,16.59
2023-05-19T17:35:45.588Z,16.56
2023-05-19T17:38:51.455Z,16.53
2023-05-19T17:41:54.626Z,16.50
2023-05-19T17:45:04.291Z,16.48
2023-05-19T17:48:11.751Z,16.46
2023-05-19T17:51:17.294Z,16.42
2023-05-19T17:54:32.381Z,16.40
2023-05-19T17:57:41.902Z,16.37
2023-05-19T18:00:45.986Z,16.35
2023-05-19T18:03:53.284Z,16.30
2023-05-19T18:07:05.974Z,16.27
2023-05-19T18:10:22.073Z,16.24
2023-05-19T18:13:26.578Z,16.17
2023-05-19T18:16:30.601Z,16.12
2023-05-19T18:19:34.324Z,16.06
2023-05-19T18:22:37.325Z,15.99
2023-05-19T18:25:40.714Z,15.96
2023-05-19T18:28:46.202Z,15.92
2023-05-19T18:31:48.690Z,15.89
2023-05-19T18:34:52.564Z,15.85
2023-05-19T18:37:59.536Z,15.82
2023-05-19T18:41:11.279Z,15.80
2023-05-19T18:44:18.027Z,15.76
2023-05-19T18:47:31.949Z,15.72
2023-05-19T18:50:34.968Z,15.65
2023-05-19T18:53:37.435Z,15.58
2023-05-19T18:56:39.898Z,15.53
2023-05-19T18:59:42.626Z,15.46
2023-05-19T19:02:49.130Z,15.43
2023-05-19T19:06:02.415Z,15.39
2023-05-19T19:09:04.774Z,15.35
2023-05-19T19:12:10.032Z,15.29
2023-05-19T19:15:14.144Z,15.23
2023-05-19T19:18:19.197Z,15.19
2023-05-19T19:21:25.126Z,15.12
2023-05-19T19:24:35.836Z,15.08
2023-05-19T19:27:40.114Z,15.05
2023-05-19T19:30:43.517Z,15.01
2023-05-19T19:33:50.833Z,14.96
2023-05-19T19:36:54.330Z,14.92
2023-05-19T19:43:21.388Z,14.85
2023-05-19T19:46:24.168Z,14.82
2023-05-19T19:49:32.080Z,14.78
2023-05-19T19:52:38.347Z,14.73
2023-05-19T19:55:44.350Z,14.71
2023-05-19T19:58:47.353Z,14.70
2023-05-19T20:01:49.593Z,14.69
2023-05-19T20:04:54.354Z,14.68
2023-05-19T20:08:00.499Z,14.68
2023-05-19T20:11:04.702Z,14.66
2023-05-19T20:14:08.255Z,14.64
2023-05-19T20:17:15.699Z,14.63
2023-05-19T20:20:20.423Z,14.60
2023-05-19T20:23:24.668Z,14.59
2023-05-19T20:26:31.408Z,14.58
2023-05-19T20:29:38.040Z,14.57
2023-05-19T20:32:42.371Z,14.57
2023-05-19T20:35:46.546Z,14.56
2023-05-19T20:38:54.190Z,14.56
2023-05-19T20:41:59.495Z,14.51
2023-05-19T20:45:01.953Z,14.52
2023-05-19T20:48:12.216Z,14.49
2023-05-19T20:51:17.287Z,14.49
2023-05-19T20:54:22.041Z,14.48
2023-05-19T20:57:30.515Z,14.47
2023-05-19T21:00:37.253Z,14.44
2023-05-19T21:03:47.280Z,14.43
2023-05-19T21:06:51.833Z,14.40
2023-05-19T21:10:01.802Z,14.37
2023-05-19T21:13:06.478Z,14.34
2023-05-19T21:16:14.511Z,14.32
2023-05-19T21:19:23.611Z,14.30
2023-05-19T21:22:27.949Z,14.28
2023-05-19T21:25:35.004Z,14.24
2023-05-19T21:28:38.816Z,14.21
2023-05-19T21:31:42.563Z,14.21
2023-05-19T21:34:47.357Z,14.19
2023-05-19T21:37:50.499Z,14.17
2023-05-19T21:40:54.102Z,14.17
2023-05-19T21:44:01.518Z,14.14
2023-05-19T21:47:03.908Z,14.11
2023-05-19T21:50:10.947Z,14.08
2023-05-19T21:53:13.249Z,14.04
2023-05-19T21:56:16.528Z,14.03
2023-05-19T21:59:24.919Z,13.98
2023-05-19T22:02:32.758Z,13.96
2023-05-19T22:05:38.356Z,13.91
2023-05-19T22:08:42.993Z,13.89
2023-05-19T22:11:47.611Z,13.82
2023-05-19T22:14:51.896Z,13.79
2023-05-19T22:17:55.689Z,13.75
2023-05-19T22:21:02.094Z,13.68
2023-05-19T22:24:05.635Z,13.64
2023-05-19T22:27:08.320Z,13.61
2023-05-19T22:30:12.212Z,13.58
2023-05-19T22:33:16.227Z,13.55
2023-05-19T22:36:20.245Z,13.54
2023-05-19T22:39:23.613Z,13.54
2023-05-19T22:42:28.268Z,13.50
2023-05-19T22:45:31.974Z,13.52
2023-05-19T22:48:34.124Z,13.49
2023-05-19T22:51:40.219Z,13.49
2023-05-19T22:54:42.993Z,13.50
2023-05-19T22:57:47.530Z,13.49
2023-05-19T23:00:49.162Z,13.52
2023-05-19T23:03:53.612Z,13.51
2023-05-19T23:06:56.313Z,13.49
2023-05-19T23:09:59.723Z,13.46
2023-05-19T23:13:03.450Z,13.44
2023-05-19T23:16:09.664Z,13.42
2023-05-19T23:19:14.925Z,13.36
2023-05-19T23:22:19.820Z,13.36
2023-05-19T23:25:22.581Z,13.32
2023-05-19T23:28:25.869Z,13.29
2023-05-19T23:31:28.379Z,13.25
2023-05-19T23:34:36.302Z,13.24
2023-05-19T23:37:40.764Z,13.19
2023-05-19T23:40:45.379Z,13.18
2023-05-19T23:43:48.972Z,13.15
2023-05-19T23:46:54.554Z,13.11
2023-05-19T23:50:00.589Z,13.09
2023-05-19T23:53:13.350Z,13.05
2023-05-19T23:56:17.494Z,13.01
2023-05-19T23:59:20.142Z,12.97
